JEF11 EFHK-LYTV
Flight info
| Callsign | JEF11 |
|---|---|
| Flight time | 2h 45m |
| Altitude | 40000 |
| Route | KOIVU Y123 LARTI DCT ORTAX/N0461F380 DCT LUTAL P870 BERIL/N0464F370 DCT BOKSU/N0465F380 M857 PODAN DCT KEKED DCT UVERA DCT PARAK/N0458F390 DCT KOSIV/N0456F400 DCT YUYUH DCT POD |
| Aircraft | CL60/M-SBDE2E3FGHIJ1J3J4J5M1P2RWXYZ/LB1D1 |
Departure
| Time | 2026-05-09 16:42 |
|---|---|
| Airport | Helsinki Vantaa Airport (EFHK) |
Arrival
| Time | 2026-05-09 19:27 |
|---|---|
| Airport | Tivat Airport (LYTV) |
| Time | Latitude | Longitude | Altitude | Speed | Heading |
|---|---|---|---|---|---|
| 2026-05-09 15:59 | 60.30838 | 24.97899 | 187 ft | 0 kts | 154° |
| 2026-05-09 16:36 | 60.30823 | 24.97936 | 187 ft | 6 kts | 89° |
| 2026-05-09 16:37 | 60.30864 | 24.98015 | 187 ft | 9 kts | 33° |
| 2026-05-09 16:37 | 60.30918 | 24.98097 | 187 ft | 9 kts | 54° |
| 2026-05-09 16:37 | 60.30959 | 24.98204 | 187 ft | 10 kts | 17° |
| 2026-05-09 16:37 | 60.31036 | 24.98151 | 187 ft | 13 kts | 335° |
| 2026-05-09 16:38 | 60.31126 | 24.98061 | 187 ft | 15 kts | 334° |
| 2026-05-09 16:38 | 60.31230 | 24.97956 | 187 ft | 17 kts | 333° |
| 2026-05-09 16:38 | 60.31347 | 24.97836 | 187 ft | 19 kts | 333° |
| 2026-05-09 16:38 | 60.31478 | 24.97701 | 187 ft | 22 kts | 333° |
| 2026-05-09 16:39 | 60.31619 | 24.97556 | 187 ft | 23 kts | 333° |
| 2026-05-09 16:39 | 60.31772 | 24.97397 | 187 ft | 25 kts | 333° |
| 2026-05-09 16:39 | 60.31936 | 24.97229 | 187 ft | 27 kts | 333° |
| 2026-05-09 16:39 | 60.32105 | 24.97058 | 187 ft | 26 kts | 333° |
| 2026-05-09 16:40 | 60.32263 | 24.96892 | 187 ft | 24 kts | 333° |
| 2026-05-09 16:40 | 60.32407 | 24.96740 | 187 ft | 22 kts | 331° |
| 2026-05-09 16:42 | 60.28377 | 24.89633 | 3189 ft | 192 kts | 206° |
| 2026-05-09 16:42 | 60.27222 | 24.88345 | 4144 ft | 200 kts | 206° |
| 2026-05-09 16:42 | 60.25937 | 24.86925 | 4813 ft | 225 kts | 206° |
| 2026-05-09 16:42 | 60.24484 | 24.85320 | 5547 ft | 252 kts | 207° |
| 2026-05-09 16:43 | 60.22854 | 24.83863 | 6548 ft | 263 kts | 194° |
| 2026-05-09 16:43 | 60.21084 | 24.82988 | 7734 ft | 271 kts | 192° |
| 2026-05-09 16:43 | 60.19270 | 24.82122 | 8993 ft | 277 kts | 193° |
| 2026-05-09 16:43 | 60.17387 | 24.81225 | 10231 ft | 283 kts | 193° |
| 2026-05-09 16:44 | 60.15507 | 24.80334 | 11434 ft | 288 kts | 193° |
| 2026-05-09 16:44 | 60.13545 | 24.79408 | 12524 ft | 295 kts | 194° |
| 2026-05-09 16:44 | 60.11507 | 24.78447 | 13312 ft | 311 kts | 194° |
| 2026-05-09 16:44 | 60.09374 | 24.77444 | 14219 ft | 322 kts | 194° |
| 2026-05-09 16:45 | 60.07211 | 24.76428 | 15165 ft | 328 kts | 194° |
| 2026-05-09 16:45 | 60.04974 | 24.75379 | 16139 ft | 333 kts | 194° |
| 2026-05-09 16:45 | 60.02727 | 24.74331 | 17060 ft | 337 kts | 194° |
| 2026-05-09 16:45 | 60.00440 | 24.73268 | 17933 ft | 341 kts | 194° |
| 2026-05-09 16:46 | 59.98131 | 24.72200 | 18764 ft | 346 kts | 194° |
| 2026-05-09 16:46 | 59.95804 | 24.71128 | 19582 ft | 349 kts | 194° |
| 2026-05-09 16:46 | 59.93424 | 24.70033 | 20379 ft | 353 kts | 194° |
| 2026-05-09 16:46 | 59.91045 | 24.68943 | 21120 ft | 357 kts | 194° |
| 2026-05-09 16:47 | 59.88627 | 24.67837 | 21817 ft | 360 kts | 194° |
| 2026-05-09 16:47 | 59.86190 | 24.66725 | 22486 ft | 364 kts | 195° |
| 2026-05-09 16:47 | 59.83708 | 24.65586 | 23158 ft | 367 kts | 195° |
| 2026-05-09 16:47 | 59.81244 | 24.64421 | 23783 ft | 370 kts | 195° |
| 2026-05-09 16:48 | 59.78720 | 24.63226 | 24435 ft | 374 kts | 195° |
| 2026-05-09 16:48 | 59.76207 | 24.62040 | 25066 ft | 377 kts | 195° |
| 2026-05-09 16:48 | 59.73656 | 24.60841 | 25723 ft | 380 kts | 196° |
| 2026-05-09 16:48 | 59.71086 | 24.59633 | 26333 ft | 382 kts | 196° |
| 2026-05-09 16:49 | 59.68493 | 24.58417 | 26893 ft | 385 kts | 196° |
| 2026-05-09 16:49 | 59.65843 | 24.57364 | 27456 ft | 388 kts | 192° |
| 2026-05-09 16:49 | 59.63205 | 24.56505 | 27950 ft | 391 kts | 192° |
| 2026-05-09 16:50 | 59.57766 | 24.54740 | 29038 ft | 394 kts | 192° |
| 2026-05-09 16:50 | 59.55073 | 24.53871 | 29622 ft | 393 kts | 192° |
| 2026-05-09 16:50 | 59.52378 | 24.53002 | 30131 ft | 394 kts | 192° |
| 2026-05-09 16:50 | 59.49667 | 24.52130 | 30588 ft | 396 kts | 192° |
| 2026-05-09 16:51 | 59.46917 | 24.51245 | 31018 ft | 398 kts | 192° |
| 2026-05-09 16:51 | 59.44180 | 24.50360 | 31359 ft | 401 kts | 192° |
| 2026-05-09 16:51 | 59.41378 | 24.49457 | 31615 ft | 405 kts | 192° |
| 2026-05-09 16:51 | 59.38567 | 24.48555 | 31887 ft | 409 kts | 192° |
| 2026-05-09 16:52 | 59.35722 | 24.47644 | 32153 ft | 412 kts | 192° |
| 2026-05-09 16:52 | 59.32857 | 24.46733 | 32445 ft | 415 kts | 192° |
| 2026-05-09 16:52 | 59.29974 | 24.45819 | 32736 ft | 417 kts | 192° |
| 2026-05-09 16:52 | 59.27043 | 24.44890 | 32948 ft | 421 kts | 192° |
| 2026-05-09 16:53 | 59.24127 | 24.43969 | 33177 ft | 424 kts | 192° |
| 2026-05-09 16:53 | 59.21229 | 24.43059 | 33525 ft | 424 kts | 192° |
| 2026-05-09 16:53 | 59.18313 | 24.42144 | 33833 ft | 424 kts | 192° |
| 2026-05-09 16:53 | 59.15358 | 24.41219 | 34189 ft | 423 kts | 192° |
| 2026-05-09 16:54 | 59.12489 | 24.40325 | 34731 ft | 417 kts | 192° |
| 2026-05-09 16:54 | 59.09639 | 24.39438 | 35193 ft | 411 kts | 192° |
| 2026-05-09 16:54 | 59.06841 | 24.38570 | 35504 ft | 408 kts | 193° |
| 2026-05-09 16:54 | 59.04067 | 24.37710 | 35735 ft | 407 kts | 193° |
| 2026-05-09 16:55 | 59.01285 | 24.36848 | 35919 ft | 407 kts | 193° |
| 2026-05-09 16:55 | 58.98461 | 24.35974 | 36092 ft | 408 kts | 193° |
| 2026-05-09 16:55 | 58.95671 | 24.35113 | 36333 ft | 406 kts | 193° |
| 2026-05-09 16:55 | 58.92915 | 24.34263 | 36590 ft | 403 kts | 192° |
| 2026-05-09 16:56 | 58.90173 | 24.33419 | 36827 ft | 401 kts | 192° |
| 2026-05-09 16:56 | 58.87394 | 24.32565 | 37019 ft | 400 kts | 192° |
| 2026-05-09 16:56 | 58.84647 | 24.31697 | 37166 ft | 400 kts | 193° |
| 2026-05-09 16:56 | 58.81925 | 24.30681 | 37296 ft | 401 kts | 195° |
| 2026-05-09 16:57 | 58.79203 | 24.29516 | 37480 ft | 399 kts | 196° |
| 2026-05-09 16:57 | 58.76515 | 24.28309 | 37699 ft | 396 kts | 196° |
| 2026-05-09 16:57 | 58.73851 | 24.27120 | 37910 ft | 394 kts | 196° |
| 2026-05-09 16:57 | 58.71183 | 24.25934 | 38082 ft | 393 kts | 196° |
| 2026-05-09 16:58 | 58.68536 | 24.24762 | 38225 ft | 393 kts | 196° |
| 2026-05-09 16:58 | 58.65846 | 24.23575 | 38353 ft | 394 kts | 196° |
| 2026-05-09 16:58 | 58.63203 | 24.22412 | 38479 ft | 394 kts | 196° |
| 2026-05-09 16:58 | 58.60513 | 24.21232 | 38602 ft | 395 kts | 196° |
| 2026-05-09 16:59 | 58.57832 | 24.20059 | 38732 ft | 395 kts | 196° |
| 2026-05-09 16:59 | 58.55174 | 24.18900 | 38864 ft | 395 kts | 196° |
| 2026-05-09 16:59 | 58.52507 | 24.17740 | 39000 ft | 395 kts | 196° |
| 2026-05-09 16:59 | 58.49837 | 24.16581 | 39134 ft | 395 kts | 196° |
| 2026-05-09 17:00 | 58.47125 | 24.15406 | 39279 ft | 395 kts | 196° |
| 2026-05-09 17:00 | 58.44482 | 24.14264 | 39414 ft | 395 kts | 196° |
| 2026-05-09 17:00 | 58.41788 | 24.13102 | 39532 ft | 395 kts | 196° |
| 2026-05-09 17:00 | 58.39128 | 24.11957 | 39635 ft | 395 kts | 196° |
| 2026-05-09 17:01 | 58.36433 | 24.10799 | 39759 ft | 395 kts | 196° |
| 2026-05-09 17:01 | 58.33772 | 24.09658 | 39864 ft | 395 kts | 196° |
| 2026-05-09 17:01 | 58.31092 | 24.08511 | 39966 ft | 395 kts | 196° |
| 2026-05-09 17:02 | 58.25752 | 24.06231 | 40146 ft | 396 kts | 196° |
| 2026-05-09 17:02 | 58.20401 | 24.03953 | 40225 ft | 399 kts | 196° |
| 2026-05-09 17:03 | 58.14967 | 24.01645 | 40234 ft | 403 kts | 196° |
| 2026-05-09 17:04 | 57.95485 | 23.93427 | 40216 ft | 418 kts | 196° |
| 2026-05-09 17:05 | 57.92665 | 23.92245 | 40223 ft | 420 kts | 196° |
| 2026-05-09 17:05 | 57.86882 | 23.90071 | 40216 ft | 425 kts | 193° |
| 2026-05-09 17:06 | 57.81018 | 23.88132 | 40216 ft | 428 kts | 193° |
| 2026-05-09 17:06 | 57.75160 | 23.86199 | 40212 ft | 431 kts | 193° |
| 2026-05-09 17:07 | 57.69249 | 23.84257 | 40214 ft | 434 kts | 193° |
| 2026-05-09 17:07 | 57.63322 | 23.82319 | 40213 ft | 437 kts | 193° |
| 2026-05-09 17:08 | 57.57330 | 23.80366 | 40210 ft | 440 kts | 193° |
| 2026-05-09 17:08 | 57.48253 | 23.77420 | 40208 ft | 443 kts | 193° |
| 2026-05-09 17:09 | 57.42201 | 23.75464 | 40205 ft | 445 kts | 193° |
| 2026-05-09 17:09 | 57.36069 | 23.73487 | 40207 ft | 447 kts | 193° |
| 2026-05-09 17:10 | 57.29929 | 23.71515 | 40204 ft | 449 kts | 193° |
| 2026-05-09 17:10 | 57.23763 | 23.69541 | 40201 ft | 451 kts | 193° |
| 2026-05-09 17:11 | 57.17584 | 23.67569 | 40199 ft | 453 kts | 193° |
| 2026-05-09 17:11 | 57.11381 | 23.65596 | 40196 ft | 454 kts | 193° |
| 2026-05-09 17:12 | 57.05164 | 23.63626 | 40193 ft | 455 kts | 193° |
| 2026-05-09 17:12 | 56.98885 | 23.61643 | 40193 ft | 455 kts | 193° |
| 2026-05-09 17:13 | 56.92614 | 23.59669 | 40186 ft | 456 kts | 193° |
| 2026-05-09 17:13 | 56.86295 | 23.57688 | 40190 ft | 457 kts | 193° |
| 2026-05-09 17:14 | 56.80058 | 23.55739 | 40187 ft | 457 kts | 193° |
| 2026-05-09 17:14 | 56.73788 | 23.53787 | 40184 ft | 457 kts | 193° |
| 2026-05-09 17:15 | 56.67519 | 23.51840 | 40182 ft | 457 kts | 193° |
| 2026-05-09 17:15 | 56.61175 | 23.49878 | 40177 ft | 458 kts | 193° |
| 2026-05-09 17:17 | 56.36013 | 23.42200 | 40172 ft | 458 kts | 191° |
| 2026-05-09 17:18 | 56.29651 | 23.40970 | 40168 ft | 459 kts | 189° |
| 2026-05-09 17:18 | 56.23316 | 23.39792 | 40177 ft | 459 kts | 189° |
| 2026-05-09 17:19 | 56.16949 | 23.38609 | 40176 ft | 459 kts | 189° |
| 2026-05-09 17:19 | 56.10618 | 23.37436 | 40175 ft | 459 kts | 189° |
| 2026-05-09 17:20 | 56.04240 | 23.36257 | 40174 ft | 459 kts | 189° |
| 2026-05-09 17:20 | 55.97849 | 23.35079 | 40177 ft | 459 kts | 189° |
| 2026-05-09 17:21 | 55.91467 | 23.33905 | 40170 ft | 460 kts | 188° |
| 2026-05-09 17:21 | 55.85059 | 23.32730 | 40176 ft | 460 kts | 188° |
| 2026-05-09 17:22 | 55.78697 | 23.31567 | 40174 ft | 460 kts | 188° |
| 2026-05-09 17:22 | 55.72288 | 23.30399 | 40158 ft | 460 kts | 188° |
| 2026-05-09 17:23 | 55.65953 | 23.29248 | 40160 ft | 460 kts | 188° |
| 2026-05-09 17:23 | 55.59558 | 23.28090 | 40150 ft | 461 kts | 188° |
| 2026-05-09 17:25 | 55.40442 | 23.24650 | 40145 ft | 461 kts | 188° |
| 2026-05-09 17:25 | 55.34045 | 23.23506 | 40145 ft | 461 kts | 188° |
| 2026-05-09 17:26 | 55.27660 | 23.22368 | 40142 ft | 461 kts | 188° |
| 2026-05-09 17:26 | 55.21217 | 23.21223 | 40143 ft | 461 kts | 188° |
| 2026-05-09 17:27 | 55.14840 | 23.20093 | 40137 ft | 461 kts | 188° |
| 2026-05-09 17:27 | 55.08454 | 23.18966 | 40140 ft | 461 kts | 188° |
| 2026-05-09 17:28 | 55.02065 | 23.17842 | 40140 ft | 460 kts | 188° |
| 2026-05-09 17:28 | 54.95681 | 23.16722 | 40140 ft | 460 kts | 188° |
| 2026-05-09 17:29 | 54.89267 | 23.15601 | 40147 ft | 460 kts | 189° |
| 2026-05-09 17:29 | 54.82867 | 23.14486 | 40150 ft | 460 kts | 188° |
| 2026-05-09 17:30 | 54.76494 | 23.13379 | 40143 ft | 460 kts | 188° |
| 2026-05-09 17:30 | 54.70084 | 23.12269 | 40142 ft | 459 kts | 188° |
| 2026-05-09 17:31 | 54.63752 | 23.11176 | 40142 ft | 459 kts | 188° |
| 2026-05-09 17:32 | 54.47775 | 23.08434 | 40134 ft | 459 kts | 189° |
| 2026-05-09 17:33 | 54.41421 | 23.07349 | 40127 ft | 459 kts | 189° |
| 2026-05-09 17:33 | 54.35068 | 23.06267 | 40124 ft | 459 kts | 189° |
| 2026-05-09 17:34 | 54.28781 | 23.04284 | 40108 ft | 456 kts | 200° |
| 2026-05-09 17:35 | 54.08126 | 22.90548 | 40122 ft | 455 kts | 204° |
| 2026-05-09 17:36 | 54.01956 | 22.87760 | 40128 ft | 457 kts | 196° |
| 2026-05-09 17:36 | 53.95794 | 22.85407 | 40128 ft | 457 kts | 196° |
| 2026-05-09 17:37 | 53.89542 | 22.83026 | 40128 ft | 457 kts | 196° |
| 2026-05-09 17:37 | 53.83309 | 22.80662 | 40132 ft | 457 kts | 196° |
| 2026-05-09 17:38 | 53.77113 | 22.78320 | 40130 ft | 457 kts | 196° |
| 2026-05-09 17:39 | 53.67742 | 22.74791 | 40135 ft | 458 kts | 196° |
| 2026-05-09 17:39 | 53.61524 | 22.72460 | 40132 ft | 458 kts | 196° |
| 2026-05-09 17:40 | 53.55311 | 22.70137 | 40134 ft | 458 kts | 196° |
| 2026-05-09 17:40 | 53.49073 | 22.67813 | 40132 ft | 457 kts | 196° |
| 2026-05-09 17:41 | 53.42860 | 22.65505 | 40138 ft | 457 kts | 196° |
| 2026-05-09 17:41 | 53.36637 | 22.63201 | 40144 ft | 457 kts | 196° |
| 2026-05-09 17:42 | 53.30439 | 22.60913 | 40137 ft | 457 kts | 196° |
| 2026-05-09 17:42 | 53.24192 | 22.58615 | 40143 ft | 457 kts | 196° |
| 2026-05-09 17:43 | 53.17977 | 22.56333 | 40144 ft | 457 kts | 196° |
| 2026-05-09 17:43 | 53.11766 | 22.54060 | 40147 ft | 457 kts | 196° |
| 2026-05-09 17:44 | 53.05537 | 22.51787 | 40139 ft | 457 kts | 196° |
| 2026-05-09 17:44 | 52.99290 | 22.49515 | 40135 ft | 457 kts | 196° |
| 2026-05-09 17:45 | 52.93048 | 22.47251 | 40130 ft | 457 kts | 196° |
| 2026-05-09 17:45 | 52.86821 | 22.45000 | 40128 ft | 457 kts | 196° |
| 2026-05-09 17:46 | 52.80574 | 22.42748 | 40131 ft | 457 kts | 196° |
| 2026-05-09 17:46 | 52.74359 | 22.40514 | 40131 ft | 457 kts | 196° |
| 2026-05-09 17:47 | 52.68111 | 22.38276 | 40133 ft | 457 kts | 196° |
| 2026-05-09 17:47 | 52.61909 | 22.36061 | 40133 ft | 457 kts | 196° |
| 2026-05-09 17:48 | 52.55636 | 22.33827 | 40129 ft | 457 kts | 195° |
| 2026-05-09 17:48 | 52.49411 | 22.31617 | 40129 ft | 458 kts | 195° |
| 2026-05-09 17:49 | 52.43177 | 22.29410 | 40130 ft | 458 kts | 195° |
| 2026-05-09 17:49 | 52.36943 | 22.27210 | 40129 ft | 458 kts | 195° |
| 2026-05-09 17:50 | 52.30702 | 22.25014 | 40127 ft | 458 kts | 195° |
| 2026-05-09 17:50 | 52.21276 | 22.21710 | 40130 ft | 458 kts | 195° |
| 2026-05-09 17:51 | 52.15053 | 22.19563 | 40127 ft | 459 kts | 194° |
| 2026-05-09 17:51 | 52.08743 | 22.17681 | 40122 ft | 459 kts | 194° |
| 2026-05-09 17:52 | 52.02423 | 22.15810 | 40124 ft | 459 kts | 194° |
| 2026-05-09 17:52 | 51.96155 | 22.13960 | 40122 ft | 459 kts | 194° |
| 2026-05-09 17:53 | 51.89852 | 22.12105 | 40123 ft | 459 kts | 194° |
| 2026-05-09 17:53 | 51.83550 | 22.10254 | 40124 ft | 459 kts | 194° |
| 2026-05-09 17:54 | 51.77243 | 22.08411 | 40120 ft | 459 kts | 194° |
| 2026-05-09 17:54 | 51.70954 | 22.06580 | 40123 ft | 458 kts | 194° |
| 2026-05-09 17:55 | 51.64660 | 22.04753 | 40129 ft | 458 kts | 194° |
| 2026-05-09 17:55 | 51.58342 | 22.02921 | 40126 ft | 458 kts | 194° |
| 2026-05-09 17:56 | 51.52065 | 22.01102 | 40124 ft | 459 kts | 194° |
| 2026-05-09 17:57 | 51.42587 | 21.98364 | 40127 ft | 459 kts | 194° |
| 2026-05-09 17:57 | 51.36287 | 21.96599 | 40128 ft | 459 kts | 194° |
| 2026-05-09 17:58 | 51.29974 | 21.94848 | 40126 ft | 459 kts | 194° |
| 2026-05-09 17:58 | 51.23677 | 21.93107 | 40126 ft | 459 kts | 194° |
| 2026-05-09 17:59 | 51.17403 | 21.91376 | 40128 ft | 459 kts | 194° |
| 2026-05-09 17:59 | 51.11087 | 21.89620 | 40130 ft | 459 kts | 194° |
| 2026-05-09 18:00 | 51.04800 | 21.87860 | 40132 ft | 459 kts | 194° |
| 2026-05-09 18:00 | 50.98500 | 21.86097 | 40132 ft | 459 kts | 194° |
| 2026-05-09 18:01 | 50.92169 | 21.84330 | 40133 ft | 459 kts | 194° |
| 2026-05-09 18:01 | 50.85846 | 21.82569 | 40131 ft | 459 kts | 194° |
| 2026-05-09 18:02 | 50.79552 | 21.80822 | 40136 ft | 459 kts | 194° |
| 2026-05-09 18:02 | 50.73231 | 21.79072 | 40142 ft | 459 kts | 194° |
| 2026-05-09 18:03 | 50.66955 | 21.77338 | 40156 ft | 458 kts | 194° |
| 2026-05-09 18:03 | 50.60634 | 21.75597 | 40151 ft | 459 kts | 194° |
| 2026-05-09 18:04 | 50.54382 | 21.73879 | 40156 ft | 458 kts | 194° |
| 2026-05-09 18:04 | 50.48075 | 21.72149 | 40153 ft | 458 kts | 194° |
| 2026-05-09 18:05 | 50.41778 | 21.70427 | 40156 ft | 458 kts | 194° |
| 2026-05-09 18:05 | 50.35491 | 21.68712 | 40158 ft | 458 kts | 194° |
| 2026-05-09 18:06 | 50.29203 | 21.67001 | 40157 ft | 458 kts | 194° |
| 2026-05-09 18:06 | 50.22899 | 21.65291 | 40153 ft | 459 kts | 194° |
| 2026-05-09 18:07 | 50.16573 | 21.63580 | 40149 ft | 459 kts | 194° |
| 2026-05-09 18:07 | 50.10280 | 21.61882 | 40149 ft | 459 kts | 194° |
| 2026-05-09 18:08 | 50.03997 | 21.60191 | 40147 ft | 460 kts | 194° |
| 2026-05-09 18:08 | 49.97655 | 21.58488 | 40148 ft | 460 kts | 194° |
| 2026-05-09 18:09 | 49.91321 | 21.56792 | 40145 ft | 460 kts | 194° |
| 2026-05-09 18:09 | 49.84959 | 21.55093 | 40145 ft | 461 kts | 194° |
| 2026-05-09 18:10 | 49.78637 | 21.53408 | 40150 ft | 460 kts | 194° |
| 2026-05-09 18:10 | 49.72294 | 21.51723 | 40146 ft | 461 kts | 194° |
| 2026-05-09 18:11 | 49.65964 | 21.50047 | 40137 ft | 461 kts | 194° |
| 2026-05-09 18:11 | 49.59591 | 21.48364 | 40134 ft | 461 kts | 194° |
| 2026-05-09 18:12 | 49.53243 | 21.46692 | 40127 ft | 462 kts | 194° |
| 2026-05-09 18:12 | 49.46936 | 21.45036 | 40119 ft | 461 kts | 194° |
| 2026-05-09 18:13 | 49.40575 | 21.43424 | 40134 ft | 462 kts | 192° |
| 2026-05-09 18:13 | 49.34195 | 21.42336 | 40131 ft | 462 kts | 191° |
| 2026-05-09 18:14 | 49.27815 | 21.41268 | 40127 ft | 463 kts | 191° |
| 2026-05-09 18:14 | 49.21374 | 21.40192 | 40131 ft | 463 kts | 191° |
| 2026-05-09 18:15 | 49.14956 | 21.39121 | 40129 ft | 463 kts | 191° |
| 2026-05-09 18:15 | 49.08545 | 21.38052 | 40130 ft | 463 kts | 191° |
| 2026-05-09 18:16 | 49.02134 | 21.36986 | 40130 ft | 463 kts | 191° |
| 2026-05-09 18:16 | 48.95681 | 21.35915 | 40126 ft | 463 kts | 191° |
| 2026-05-09 18:17 | 48.89288 | 21.34857 | 40128 ft | 463 kts | 191° |
| 2026-05-09 18:17 | 48.82786 | 21.33783 | 40120 ft | 464 kts | 191° |
| 2026-05-09 18:18 | 48.76353 | 21.32723 | 40120 ft | 464 kts | 191° |
| 2026-05-09 18:18 | 48.69960 | 21.31672 | 40119 ft | 464 kts | 191° |
| 2026-05-09 18:19 | 48.63511 | 21.30614 | 40103 ft | 463 kts | 191° |
| 2026-05-09 18:19 | 48.53930 | 21.28898 | 40099 ft | 460 kts | 196° |
| 2026-05-09 18:20 | 48.47900 | 21.26093 | 40100 ft | 452 kts | 207° |
| 2026-05-09 18:20 | 48.42148 | 21.22240 | 40083 ft | 452 kts | 209° |
| 2026-05-09 18:21 | 48.36378 | 21.18332 | 40105 ft | 452 kts | 209° |
| 2026-05-09 18:21 | 48.30602 | 21.14446 | 40093 ft | 453 kts | 209° |
| 2026-05-09 18:22 | 48.24850 | 21.10599 | 40081 ft | 453 kts | 209° |
| 2026-05-09 18:22 | 48.19061 | 21.06745 | 40075 ft | 453 kts | 208° |
| 2026-05-09 18:23 | 48.13321 | 21.02941 | 40071 ft | 453 kts | 208° |
| 2026-05-09 18:23 | 48.07566 | 20.99141 | 40076 ft | 453 kts | 209° |
| 2026-05-09 18:24 | 48.01775 | 20.95330 | 40074 ft | 453 kts | 209° |
| 2026-05-09 18:25 | 47.93091 | 20.89638 | 40080 ft | 452 kts | 209° |
| 2026-05-09 18:25 | 47.87290 | 20.85850 | 40072 ft | 451 kts | 209° |
| 2026-05-09 18:26 | 47.81503 | 20.82082 | 40065 ft | 451 kts | 209° |
| 2026-05-09 18:26 | 47.75772 | 20.78360 | 40069 ft | 451 kts | 209° |
| 2026-05-09 18:27 | 47.69999 | 20.74620 | 40064 ft | 452 kts | 209° |
| 2026-05-09 18:27 | 47.64234 | 20.70895 | 40051 ft | 453 kts | 209° |
| 2026-05-09 18:28 | 47.58430 | 20.67154 | 40062 ft | 452 kts | 209° |
| 2026-05-09 18:28 | 47.52644 | 20.63435 | 40058 ft | 451 kts | 209° |
| 2026-05-09 18:29 | 47.46867 | 20.59730 | 40061 ft | 451 kts | 209° |
| 2026-05-09 18:29 | 47.41136 | 20.56064 | 40052 ft | 451 kts | 209° |
| 2026-05-09 18:30 | 47.35363 | 20.52379 | 40043 ft | 452 kts | 209° |
| 2026-05-09 18:30 | 47.29561 | 20.48685 | 40039 ft | 453 kts | 209° |
| 2026-05-09 18:31 | 47.23751 | 20.44995 | 40047 ft | 453 kts | 209° |
| 2026-05-09 18:31 | 47.17826 | 20.41876 | 40057 ft | 458 kts | 199° |
| 2026-05-09 18:32 | 47.11545 | 20.39812 | 40045 ft | 460 kts | 199° |
| 2026-05-09 18:32 | 47.05268 | 20.37755 | 40040 ft | 458 kts | 199° |
| 2026-05-09 18:33 | 46.99044 | 20.35719 | 40031 ft | 458 kts | 199° |
| 2026-05-09 18:33 | 46.92780 | 20.33674 | 40043 ft | 458 kts | 198° |
| 2026-05-09 18:34 | 46.86522 | 20.31634 | 40037 ft | 458 kts | 198° |
| 2026-05-09 18:34 | 46.80270 | 20.29600 | 40034 ft | 458 kts | 198° |
| 2026-05-09 18:35 | 46.74021 | 20.27571 | 40034 ft | 459 kts | 198° |
| 2026-05-09 18:35 | 46.67802 | 20.25557 | 40030 ft | 459 kts | 198° |
| 2026-05-09 18:36 | 46.61555 | 20.23538 | 40038 ft | 458 kts | 198° |
| 2026-05-09 18:36 | 46.55320 | 20.21528 | 40038 ft | 458 kts | 198° |
| 2026-05-09 18:37 | 46.49116 | 20.19532 | 40036 ft | 458 kts | 198° |
| 2026-05-09 18:37 | 46.42891 | 20.17534 | 40039 ft | 458 kts | 198° |
| 2026-05-09 18:38 | 46.36668 | 20.15541 | 40033 ft | 458 kts | 199° |
| 2026-05-09 18:38 | 46.30405 | 20.13540 | 40037 ft | 458 kts | 198° |
| 2026-05-09 18:40 | 46.05003 | 20.07483 | 40035 ft | 463 kts | 192° |
| 2026-05-09 18:41 | 45.98618 | 20.06610 | 40029 ft | 464 kts | 192° |
| 2026-05-09 18:41 | 45.92160 | 20.05728 | 40039 ft | 463 kts | 192° |
| 2026-05-09 18:42 | 45.85736 | 20.04851 | 40035 ft | 463 kts | 192° |
| 2026-05-09 18:42 | 45.79290 | 20.03972 | 40033 ft | 463 kts | 192° |
| 2026-05-09 18:43 | 45.72862 | 20.03097 | 40038 ft | 464 kts | 192° |
| 2026-05-09 18:43 | 45.66440 | 20.02225 | 40036 ft | 464 kts | 192° |
| 2026-05-09 18:44 | 45.60014 | 20.01353 | 40037 ft | 464 kts | 193° |
| 2026-05-09 18:44 | 45.53547 | 20.00478 | 40035 ft | 464 kts | 193° |
| 2026-05-09 18:45 | 45.47119 | 19.99609 | 40036 ft | 464 kts | 192° |
| 2026-05-09 18:45 | 45.40678 | 19.98741 | 40036 ft | 464 kts | 193° |
| 2026-05-09 18:46 | 45.34200 | 19.97870 | 40033 ft | 464 kts | 193° |
| 2026-05-09 18:46 | 45.27736 | 19.97003 | 40034 ft | 464 kts | 193° |
| 2026-05-09 18:47 | 45.21279 | 19.96139 | 40037 ft | 464 kts | 193° |
| 2026-05-09 18:47 | 45.14833 | 19.95278 | 40037 ft | 464 kts | 193° |
| 2026-05-09 18:48 | 45.08307 | 19.94408 | 40042 ft | 465 kts | 193° |
| 2026-05-09 18:48 | 45.01844 | 19.93548 | 40048 ft | 465 kts | 193° |
| 2026-05-09 18:49 | 44.95390 | 19.92691 | 40045 ft | 465 kts | 193° |
| 2026-05-09 18:49 | 44.88898 | 19.91832 | 40057 ft | 465 kts | 193° |
| 2026-05-09 18:50 | 44.82451 | 19.90980 | 40052 ft | 464 kts | 193° |
| 2026-05-09 18:50 | 44.75997 | 19.90130 | 40068 ft | 464 kts | 193° |
| 2026-05-09 18:51 | 44.69527 | 19.89280 | 40068 ft | 464 kts | 193° |
| 2026-05-09 18:51 | 44.63105 | 19.88436 | 40079 ft | 465 kts | 194° |
| 2026-05-09 18:52 | 44.56626 | 19.87587 | 40078 ft | 466 kts | 194° |
| 2026-05-09 18:52 | 44.50136 | 19.86739 | 40073 ft | 465 kts | 194° |
| 2026-05-09 18:53 | 44.43685 | 19.85899 | 40087 ft | 464 kts | 194° |
| 2026-05-09 18:53 | 44.37254 | 19.85063 | 40078 ft | 463 kts | 194° |
| 2026-05-09 18:54 | 44.30806 | 19.84226 | 40085 ft | 463 kts | 194° |
| 2026-05-09 18:54 | 44.24376 | 19.83392 | 40084 ft | 464 kts | 194° |
| 2026-05-09 18:55 | 44.17944 | 19.82561 | 40081 ft | 464 kts | 194° |
| 2026-05-09 18:55 | 44.11504 | 19.81730 | 40106 ft | 464 kts | 194° |
| 2026-05-09 18:56 | 44.05027 | 19.80897 | 40089 ft | 464 kts | 194° |
| 2026-05-09 18:56 | 43.98633 | 19.79876 | 40095 ft | 461 kts | 198° |
| 2026-05-09 18:57 | 43.92295 | 19.78462 | 40102 ft | 458 kts | 199° |
| 2026-05-09 18:57 | 43.85916 | 19.77029 | 40117 ft | 459 kts | 198° |
| 2026-05-09 18:58 | 43.79798 | 19.75665 | 40111 ft | 459 kts | 198° |
| 2026-05-09 18:58 | 43.73470 | 19.74265 | 40109 ft | 460 kts | 198° |
| 2026-05-09 18:59 | 43.67118 | 19.72868 | 40122 ft | 460 kts | 198° |
| 2026-05-09 18:59 | 43.60772 | 19.71479 | 40119 ft | 460 kts | 198° |
| 2026-05-09 19:00 | 43.54438 | 19.70100 | 40122 ft | 460 kts | 198° |
| 2026-05-09 19:00 | 43.44935 | 19.68039 | 40127 ft | 459 kts | 198° |
| 2026-05-09 19:01 | 43.38569 | 19.66655 | 39704 ft | 470 kts | 198° |
| 2026-05-09 19:01 | 43.35354 | 19.65958 | 39093 ft | 468 kts | 198° |
| 2026-05-09 19:01 | 43.32133 | 19.65268 | 38488 ft | 464 kts | 198° |
| 2026-05-09 19:02 | 43.28930 | 19.64579 | 37892 ft | 463 kts | 199° |
| 2026-05-09 19:02 | 43.25764 | 19.63893 | 37278 ft | 463 kts | 199° |
| 2026-05-09 19:02 | 43.22599 | 19.62981 | 36654 ft | 457 kts | 205° |
| 2026-05-09 19:02 | 43.19559 | 19.61761 | 36069 ft | 453 kts | 208° |
| 2026-05-09 19:03 | 43.16581 | 19.60376 | 35481 ft | 453 kts | 209° |
| 2026-05-09 19:03 | 43.13560 | 19.58957 | 34861 ft | 454 kts | 209° |
| 2026-05-09 19:03 | 43.10571 | 19.57561 | 34258 ft | 456 kts | 209° |
| 2026-05-09 19:03 | 43.07545 | 19.56153 | 33611 ft | 457 kts | 209° |
| 2026-05-09 19:04 | 43.04523 | 19.54754 | 33047 ft | 456 kts | 209° |
| 2026-05-09 19:04 | 43.01553 | 19.53384 | 32434 ft | 453 kts | 209° |
| 2026-05-09 19:04 | 42.98564 | 19.52012 | 31841 ft | 449 kts | 208° |
| 2026-05-09 19:04 | 42.95601 | 19.50655 | 31241 ft | 445 kts | 208° |
| 2026-05-09 19:05 | 42.92713 | 19.49336 | 30661 ft | 441 kts | 208° |
| 2026-05-09 19:05 | 42.89814 | 19.48013 | 30074 ft | 438 kts | 208° |
| 2026-05-09 19:05 | 42.86874 | 19.46674 | 29490 ft | 435 kts | 208° |
| 2026-05-09 19:05 | 42.84039 | 19.45386 | 28913 ft | 432 kts | 208° |
| 2026-05-09 19:06 | 42.81188 | 19.44093 | 28339 ft | 429 kts | 208° |
| 2026-05-09 19:06 | 42.78366 | 19.42815 | 27777 ft | 426 kts | 208° |
| 2026-05-09 19:06 | 42.75540 | 19.41538 | 27206 ft | 423 kts | 207° |
| 2026-05-09 19:06 | 42.72745 | 19.40277 | 26644 ft | 421 kts | 207° |
| 2026-05-09 19:07 | 42.69997 | 19.39039 | 26087 ft | 418 kts | 207° |
| 2026-05-09 19:07 | 42.67230 | 19.37794 | 25527 ft | 416 kts | 207° |
| 2026-05-09 19:07 | 42.64473 | 19.36555 | 24967 ft | 413 kts | 206° |
| 2026-05-09 19:07 | 42.61759 | 19.35337 | 24423 ft | 410 kts | 206° |
| 2026-05-09 19:08 | 42.59056 | 19.34125 | 23878 ft | 408 kts | 205° |
| 2026-05-09 19:08 | 42.56346 | 19.32916 | 23332 ft | 405 kts | 205° |
| 2026-05-09 19:08 | 42.53673 | 19.31724 | 22795 ft | 402 kts | 205° |
| 2026-05-09 19:08 | 42.51032 | 19.30547 | 22253 ft | 399 kts | 205° |
| 2026-05-09 19:09 | 42.48425 | 19.29386 | 21716 ft | 395 kts | 205° |
| 2026-05-09 19:09 | 42.45821 | 19.28228 | 21192 ft | 392 kts | 205° |
| 2026-05-09 19:09 | 42.43222 | 19.27072 | 20670 ft | 388 kts | 205° |
| 2026-05-09 19:09 | 42.40652 | 19.25931 | 20145 ft | 386 kts | 205° |
| 2026-05-09 19:10 | 42.38105 | 19.24871 | 19640 ft | 384 kts | 202° |
| 2026-05-09 19:10 | 42.35536 | 19.23936 | 19134 ft | 381 kts | 201° |
| 2026-05-09 19:10 | 42.32992 | 19.23015 | 18631 ft | 378 kts | 201° |
| 2026-05-09 19:10 | 42.30450 | 19.22095 | 18129 ft | 375 kts | 201° |
| 2026-05-09 19:11 | 42.27942 | 19.21188 | 17637 ft | 372 kts | 201° |
| 2026-05-09 19:11 | 42.25441 | 19.20285 | 17175 ft | 368 kts | 201° |
| 2026-05-09 19:11 | 42.22980 | 19.19397 | 16723 ft | 366 kts | 201° |
| 2026-05-09 19:11 | 42.20523 | 19.18511 | 16263 ft | 364 kts | 201° |
| 2026-05-09 19:12 | 42.18102 | 19.17639 | 15812 ft | 361 kts | 200° |
| 2026-05-09 19:12 | 42.15688 | 19.16772 | 15365 ft | 355 kts | 200° |
| 2026-05-09 19:12 | 42.13326 | 19.15926 | 14917 ft | 348 kts | 200° |
| 2026-05-09 19:12 | 42.10990 | 19.15091 | 14446 ft | 341 kts | 200° |
| 2026-05-09 19:13 | 42.08754 | 19.14203 | 13993 ft | 332 kts | 207° |
| 2026-05-09 19:13 | 42.06852 | 19.12558 | 13559 ft | 318 kts | 229° |
| 2026-05-09 19:13 | 42.05525 | 19.10290 | 13038 ft | 303 kts | 245° |
| 2026-05-09 19:13 | 42.04706 | 19.07769 | 12522 ft | 293 kts | 258° |
| 2026-05-09 19:14 | 42.04356 | 19.05112 | 11944 ft | 285 kts | 271° |
| 2026-05-09 19:14 | 42.04491 | 19.02506 | 11401 ft | 278 kts | 284° |
| 2026-05-09 19:14 | 42.05087 | 19.00079 | 10826 ft | 273 kts | 298° |
| 2026-05-09 19:14 | 42.06098 | 18.97966 | 10251 ft | 270 kts | 313° |
| 2026-05-09 19:15 | 42.07485 | 18.96335 | 9676 ft | 266 kts | 329° |
| 2026-05-09 19:15 | 42.08915 | 18.94752 | 9134 ft | 263 kts | 309° |
| 2026-05-09 19:15 | 42.09593 | 18.92578 | 8809 ft | 253 kts | 278° |
| 2026-05-09 19:15 | 42.09349 | 18.90269 | 8505 ft | 246 kts | 251° |
| 2026-05-09 19:16 | 42.08621 | 18.88226 | 8116 ft | 243 kts | 243° |
| 2026-05-09 19:16 | 42.07692 | 18.86367 | 7690 ft | 241 kts | 231° |
| 2026-05-09 19:16 | 42.06462 | 18.84871 | 7270 ft | 240 kts | 217° |
| 2026-05-09 19:16 | 42.04932 | 18.84080 | 6856 ft | 237 kts | 184° |
| 2026-05-09 19:17 | 42.03392 | 18.84530 | 6471 ft | 224 kts | 150° |
| 2026-05-09 19:17 | 42.02350 | 18.86031 | 6068 ft | 220 kts | 119° |
| 2026-05-09 19:17 | 42.01958 | 18.87962 | 5661 ft | 215 kts | 86° |
| 2026-05-09 19:17 | 42.02466 | 18.89802 | 5466 ft | 212 kts | 59° |
| 2026-05-09 19:18 | 42.03447 | 18.91285 | 5299 ft | 213 kts | 40° |
| 2026-05-09 19:18 | 42.04754 | 18.92206 | 5139 ft | 212 kts | 18° |
| 2026-05-09 19:18 | 42.06223 | 18.92362 | 5024 ft | 214 kts | 353° |
| 2026-05-09 19:18 | 42.07610 | 18.91670 | 4907 ft | 215 kts | 337° |
| 2026-05-09 19:19 | 42.08954 | 18.90834 | 4770 ft | 213 kts | 338° |
| 2026-05-09 19:19 | 42.10308 | 18.90014 | 4623 ft | 212 kts | 338° |
| 2026-05-09 19:19 | 42.11647 | 18.89198 | 4483 ft | 212 kts | 338° |
| 2026-05-09 19:19 | 42.12977 | 18.88381 | 4335 ft | 202 kts | 338° |
| 2026-05-09 19:20 | 42.14218 | 18.87612 | 4195 ft | 193 kts | 338° |
| 2026-05-09 19:20 | 42.15421 | 18.86865 | 4048 ft | 190 kts | 338° |
| 2026-05-09 19:20 | 42.16626 | 18.86140 | 3992 ft | 188 kts | 339° |
| 2026-05-09 19:20 | 42.17827 | 18.85452 | 3953 ft | 190 kts | 340° |
| 2026-05-09 19:21 | 42.19057 | 18.84780 | 3751 ft | 189 kts | 341° |
| 2026-05-09 19:21 | 42.20285 | 18.84138 | 3589 ft | 187 kts | 342° |
| 2026-05-09 19:21 | 42.21492 | 18.83537 | 3470 ft | 187 kts | 342° |
| 2026-05-09 19:21 | 42.22714 | 18.82918 | 3348 ft | 187 kts | 342° |
| 2026-05-09 19:22 | 42.23887 | 18.82307 | 3199 ft | 171 kts | 341° |
| 2026-05-09 19:22 | 42.24985 | 18.81737 | 3003 ft | 166 kts | 341° |
| 2026-05-09 19:22 | 42.26059 | 18.81183 | 2810 ft | 164 kts | 342° |
| 2026-05-09 19:22 | 42.27087 | 18.80650 | 2656 ft | 145 kts | 342° |
| 2026-05-09 19:23 | 42.27988 | 18.80179 | 2623 ft | 137 kts | 342° |
| 2026-05-09 19:23 | 42.28872 | 18.79737 | 2578 ft | 135 kts | 345° |
| 2026-05-09 19:23 | 42.29781 | 18.79395 | 2426 ft | 134 kts | 347° |
| 2026-05-09 19:23 | 42.30672 | 18.79000 | 2178 ft | 134 kts | 344° |
| 2026-05-09 19:24 | 42.31546 | 18.78597 | 1930 ft | 132 kts | 344° |
| 2026-05-09 19:24 | 42.32413 | 18.78164 | 1677 ft | 131 kts | 342° |
| 2026-05-09 19:24 | 42.33262 | 18.77739 | 1512 ft | 131 kts | 341° |
| 2026-05-09 19:24 | 42.34126 | 18.77345 | 1357 ft | 132 kts | 346° |
| 2026-05-09 19:25 | 42.35020 | 18.77021 | 1160 ft | 130 kts | 347° |
| 2026-05-09 19:25 | 42.35892 | 18.76656 | 1011 ft | 132 kts | 343° |
| 2026-05-09 19:25 | 42.36743 | 18.76190 | 785 ft | 132 kts | 336° |
| 2026-05-09 19:25 | 42.37548 | 18.75587 | 544 ft | 131 kts | 330° |
| 2026-05-09 19:26 | 42.38294 | 18.74875 | 368 ft | 131 kts | 324° |
| 2026-05-09 19:26 | 42.38991 | 18.74072 | 237 ft | 131 kts | 319° |
| 2026-05-09 19:26 | 42.39669 | 18.73271 | 64 ft | 131 kts | 321° |
| 2026-05-09 19:26 | 42.40300 | 18.72513 | 21 ft | 101 kts | 318° |
| 2026-05-09 19:27 | 42.40650 | 18.72107 | 21 ft | 37 kts | 318° |
| 2026-05-09 19:27 | 42.40815 | 18.71917 | 20 ft | 25 kts | 317° |
| 2026-05-09 19:27 | 42.40922 | 18.71798 | 19 ft | 11 kts | 340° |
| 2026-05-09 19:27 | 42.40988 | 18.71836 | 19 ft | 11 kts | 50° |
| 2026-05-09 19:28 | 42.40998 | 18.71872 | 20 ft | 5 kts | 84° |
| 2026-05-09 19:28 | 42.40999 | 18.71956 | 20 ft | 4 kts | 142° |
| 2026-05-09 19:28 | 42.40969 | 18.71971 | 20 ft | 12 kts | 121° |
| 2026-05-09 19:28 | 42.40938 | 18.72039 | 20 ft | 6 kts | 194° |
| 2026-05-09 19:29 | 42.40939 | 18.71991 | 20 ft | 4 kts | 317° |
| 2026-05-09 19:29 | 42.40959 | 18.71967 | 20 ft | 0 kts | 319° |